createdAt,value
2019-01-15T00:00:31.264Z,86.91
2019-01-15T00:01:31.265Z,86.72
2019-01-15T00:02:31.265Z,86.91
2019-01-15T00:03:31.270Z,86.15
2019-01-15T00:04:31.274Z,86.53
2019-01-15T00:05:31.275Z,86.44
2019-01-15T00:06:31.280Z,86.72
2019-01-15T00:07:31.281Z,85.49
2019-01-15T00:08:31.288Z,85.40
2019-01-15T00:09:31.287Z,84.74
2019-01-15T00:10:31.291Z,84.27
2019-01-15T00:11:31.291Z,83.98
2019-01-15T00:12:31.297Z,83.80
2019-01-15T00:13:31.297Z,84.36
2019-01-15T00:14:31.298Z,83.98
2019-01-15T00:15:31.304Z,83.98
2019-01-15T00:16:31.308Z,83.98
2019-01-15T00:17:31.306Z,83.23
2019-01-15T00:18:31.312Z,83.04
2019-01-15T00:19:31.312Z,82.10
2019-01-15T00:20:31.316Z,82.47
2019-01-15T00:21:31.321Z,82.85
2019-01-15T00:22:31.321Z,82.76
2019-01-15T00:23:31.326Z,82.00
2019-01-15T00:24:31.328Z,82.00
2019-01-15T00:25:31.331Z,81.72
2019-01-15T00:26:31.332Z,81.43
2019-01-15T00:27:31.336Z,81.15
2019-01-15T00:28:31.347Z,80.87
2019-01-15T00:29:31.342Z,80.96
2019-01-15T00:30:31.350Z,81.15
2019-01-15T00:31:31.349Z,82.38
2019-01-15T00:32:31.352Z,81.24
2019-01-15T00:33:31.357Z,81.05
2019-01-15T00:34:31.358Z,80.21
2019-01-15T00:35:31.359Z,80.87
2019-01-15T00:36:31.361Z,80.40
2019-01-15T00:37:31.364Z,80.87
2019-01-15T00:38:31.366Z,80.40
2019-01-15T00:39:31.369Z,81.05
2019-01-15T00:40:31.372Z,80.68
2019-01-15T00:41:31.377Z,81.05
2019-01-15T00:42:31.381Z,81.15
2019-01-15T00:43:31.385Z,80.96
2019-01-15T00:44:31.385Z,81.15
2019-01-15T00:45:31.391Z,81.34
2019-01-15T00:46:31.397Z,81.15
2019-01-15T00:47:31.396Z,80.96
2019-01-15T00:48:31.396Z,81.40
2019-01-15T00:49:31.400Z,81.40
2019-01-15T00:50:31.401Z,80.83
2019-01-15T00:51:31.403Z,81.02
2019-01-15T00:52:31.410Z,82.43
2019-01-15T00:53:31.423Z,85.17
2019-01-15T00:54:31.414Z,87.43
2019-01-15T00:55:31.415Z,88.09
2019-01-15T00:56:31.423Z,88.94
2019-01-15T00:57:31.423Z,89.98
2019-01-15T00:58:31.424Z,89.69
2019-01-15T00:59:31.428Z,88.37
2019-01-15T01:00:31.428Z,86.30
2019-01-15T01:01:31.432Z,85.64
2019-01-15T01:02:31.437Z,84.88
2019-01-15T01:03:31.438Z,84.22
2019-01-15T01:04:31.442Z,84.22
2019-01-15T01:05:31.443Z,84.03
2019-01-15T01:06:31.451Z,84.22
2019-01-15T01:07:31.447Z,83.65
2019-01-15T01:08:31.449Z,84.22
2019-01-15T01:09:31.452Z,84.13
2019-01-15T01:10:31.454Z,83.84
2019-01-15T01:11:31.458Z,83.94
2019-01-15T01:12:31.461Z,83.28
2019-01-15T01:13:31.464Z,82.53
2019-01-15T01:14:31.465Z,82.15
2019-01-15T01:15:31.471Z,82.43
2019-01-15T01:16:31.470Z,82.24
2019-01-15T01:17:31.476Z,82.81
2019-01-15T01:18:31.475Z,82.81
2019-01-15T01:19:31.480Z,83.28
2019-01-15T01:20:31.481Z,83.37
2019-01-15T01:21:31.486Z,82.90
2019-01-15T01:22:31.488Z,82.81
2019-01-15T01:23:31.492Z,82.71
2019-01-15T01:24:31.493Z,82.71
2019-01-15T01:25:31.496Z,82.53
2019-01-15T01:26:31.495Z,82.81
2019-01-15T01:27:31.498Z,82.90
2019-01-15T01:28:31.501Z,82.62
2019-01-15T01:29:31.502Z,83.00
2019-01-15T01:30:31.504Z,83.00
2019-01-15T01:31:31.510Z,82.81
2019-01-15T01:32:31.510Z,83.47
2019-01-15T01:33:31.516Z,84.03
2019-01-15T01:34:31.517Z,84.13
2019-01-15T01:35:31.518Z,84.13
2019-01-15T01:36:31.520Z,85.36
2019-01-15T01:37:31.524Z,87.62
2019-01-15T01:38:31.526Z,92.05
2019-01-15T01:39:31.525Z,95.54
2019-01-15T01:40:31.529Z,96.86
2019-01-15T01:41:31.532Z,97.33
2019-01-15T01:42:31.534Z,98.18
2019-01-15T01:43:31.534Z,98.84
2019-01-15T01:44:31.536Z,99.99
2019-01-15T01:45:31.542Z,99.99
2019-01-15T01:46:31.542Z,99.99
2019-01-15T01:47:31.541Z,99.99
2019-01-15T01:48:31.546Z,99.99
2019-01-15T01:49:31.547Z,99.99
2019-01-15T01:50:31.599Z,99.99
2019-01-15T01:51:31.549Z,99.99
2019-01-15T01:52:31.553Z,99.99
2019-01-15T01:53:31.556Z,99.99
2019-01-15T01:54:31.609Z,99.99
2019-01-15T01:55:31.555Z,99.99
2019-01-15T01:56:31.559Z,99.99
2019-01-15T01:57:31.571Z,99.99
2019-01-15T01:58:31.560Z,99.99
2019-01-15T01:59:31.561Z,99.99
2019-01-15T02:00:31.564Z,99.99
2019-01-15T02:01:31.571Z,99.99
2019-01-15T02:02:31.568Z,99.99
2019-01-15T02:03:31.570Z,99.99
2019-01-15T02:04:31.574Z,99.99
2019-01-15T02:05:31.574Z,99.99
2019-01-15T02:06:31.575Z,99.99
2019-01-15T02:07:31.577Z,99.99
2019-01-15T02:08:31.575Z,99.99
2019-01-15T02:09:31.577Z,99.99
2019-01-15T02:10:31.577Z,99.99
2019-01-15T02:11:31.587Z,99.99
2019-01-15T02:12:36.855Z,99.99
2019-01-15T02:13:31.582Z,99.99
2019-01-15T02:14:31.584Z,99.99
2019-01-15T02:15:31.586Z,99.99
2019-01-15T02:16:31.590Z,99.99
2019-01-15T02:17:31.588Z,99.99
2019-01-15T02:18:31.588Z,99.03
2019-01-15T02:19:31.590Z,98.65
2019-01-15T02:20:31.597Z,97.33
2019-01-15T02:21:31.595Z,96.77
2019-01-15T02:22:31.594Z,96.77
2019-01-15T02:23:31.596Z,95.36
2019-01-15T02:24:31.597Z,93.18
2019-01-15T02:25:31.600Z,91.11
2019-01-15T02:26:31.599Z,89.51
2019-01-15T02:27:31.602Z,88.28
2019-01-15T02:28:31.606Z,87.90
2019-01-15T02:29:31.603Z,88.09
2019-01-15T02:30:31.609Z,88.37
2019-01-15T02:31:31.606Z,88.28
2019-01-15T02:32:31.608Z,88.75
2019-01-15T02:33:31.611Z,88.94
2019-01-15T02:34:31.611Z,88.47
2019-01-15T02:35:31.614Z,89.69
2019-01-15T02:36:31.620Z,92.05
2019-01-15T02:37:31.615Z,93.18
2019-01-15T02:38:31.616Z,94.13
2019-01-15T02:39:31.615Z,94.79
2019-01-15T02:40:31.618Z,95.45
2019-01-15T02:41:31.621Z,96.48
2019-01-15T02:42:31.622Z,97.05
2019-01-15T02:43:31.622Z,97.05
2019-01-15T02:44:31.626Z,96.39
2019-01-15T02:45:31.631Z,96.20
2019-01-15T02:46:31.630Z,95.07
2019-01-15T02:47:31.630Z,93.47
2019-01-15T02:48:31.635Z,92.43
2019-01-15T02:49:31.633Z,92.14
2019-01-15T02:50:31.635Z,91.20
2019-01-15T02:51:31.635Z,89.98
2019-01-15T02:52:31.637Z,88.65
2019-01-15T02:53:31.638Z,88.18
2019-01-15T02:54:31.641Z,86.49
2019-01-15T02:55:31.642Z,85.92
2019-01-15T02:56:31.678Z,85.54
2019-01-15T02:57:31.646Z,85.73
2019-01-15T02:58:31.646Z,85.26
2019-01-15T02:59:31.647Z,85.54
2019-01-15T03:00:31.655Z,84.13
2019-01-15T03:01:31.652Z,83.75
2019-01-15T03:02:31.653Z,82.62
2019-01-15T03:03:31.654Z,82.71
2019-01-15T03:04:31.657Z,81.02
2019-01-15T03:05:31.661Z,80.54
2019-01-15T03:06:31.660Z,80.36
2019-01-15T03:07:31.665Z,79.22
2019-01-15T03:08:31.664Z,79.41
2019-01-15T03:09:31.669Z,79.60
2019-01-15T03:10:31.670Z,78.85
2019-01-15T03:11:31.671Z,78.94
2019-01-15T03:12:31.673Z,78.75
2019-01-15T03:13:31.675Z,78.66
2019-01-15T03:14:31.673Z,78.19
2019-01-15T03:15:31.675Z,78.85
2019-01-15T03:16:31.677Z,78.94
2019-01-15T03:17:31.682Z,78.47
2019-01-15T03:18:31.679Z,77.81
2019-01-15T03:19:31.684Z,77.81
2019-01-15T03:20:31.683Z,77.62
2019-01-15T03:21:31.685Z,77.25
2019-01-15T03:22:31.687Z,77.25
2019-01-15T03:23:31.690Z,77.91
2019-01-15T03:24:31.693Z,77.72
2019-01-15T03:25:31.693Z,77.72
2019-01-15T03:26:31.697Z,77.25
2019-01-15T03:27:31.696Z,76.49
2019-01-15T03:28:31.699Z,75.83
2019-01-15T03:29:31.703Z,76.11
2019-01-15T03:30:31.702Z,75.64
2019-01-15T03:31:31.710Z,75.45
2019-01-15T03:32:31.707Z,74.79
2019-01-15T03:33:31.707Z,74.88
2019-01-15T03:34:31.710Z,75.17
2019-01-15T03:35:31.713Z,74.60
2019-01-15T03:36:31.712Z,74.60
2019-01-15T03:37:31.719Z,75.26
2019-01-15T03:38:31.717Z,75.64
2019-01-15T03:39:31.721Z,76.11
2019-01-15T03:40:31.719Z,76.11
2019-01-15T03:41:31.726Z,76.30
2019-01-15T03:42:31.724Z,76.87
2019-01-15T03:43:31.727Z,77.34
2019-01-15T03:44:31.731Z,77.15
2019-01-15T03:45:31.729Z,77.91
2019-01-15T03:46:31.731Z,77.91
2019-01-15T03:47:31.735Z,77.44
2019-01-15T03:48:31.736Z,77.15
2019-01-15T03:49:31.740Z,77.34
2019-01-15T03:50:31.738Z,76.49
2019-01-15T03:51:31.747Z,76.02
2019-01-15T03:52:31.746Z,75.54
2019-01-15T03:53:31.748Z,75.54
2019-01-15T03:54:31.747Z,75.17
2019-01-15T03:55:31.759Z,74.69
2019-01-15T03:56:31.751Z,74.41
2019-01-15T03:57:31.758Z,74.13
2019-01-15T03:58:31.754Z,73.75
2019-01-15T03:59:31.754Z,74.22
2019-01-15T04:00:31.757Z,73.85
2019-01-15T04:01:31.762Z,73.47
2019-01-15T04:02:31.765Z,74.04
2019-01-15T04:03:31.763Z,74.32
2019-01-15T04:04:31.767Z,74.60
2019-01-15T04:05:31.768Z,74.60
2019-01-15T04:06:31.776Z,75.07
2019-01-15T04:07:31.772Z,75.45
2019-01-15T04:08:31.771Z,74.79
2019-01-15T04:09:31.794Z,74.60
2019-01-15T04:10:31.787Z,74.60
2019-01-15T04:11:31.780Z,75.07
2019-01-15T04:12:31.783Z,75.36
2019-01-15T04:13:31.785Z,74.88
2019-01-15T04:14:31.783Z,75.36
2019-01-15T04:15:31.787Z,75.64
2019-01-15T04:16:31.791Z,76.21
2019-01-15T04:17:31.792Z,76.87
2019-01-15T04:18:31.796Z,77.44
2019-01-15T04:19:31.796Z,77.62
2019-01-15T04:20:31.799Z,76.87
2019-01-15T04:21:31.798Z,76.87
2019-01-15T04:22:31.800Z,77.34
2019-01-15T04:23:31.802Z,77.81
2019-01-15T04:24:31.806Z,78.09
2019-01-15T04:25:31.807Z,78.66
2019-01-15T04:26:31.806Z,79.69
2019-01-15T04:27:31.820Z,79.69
2019-01-15T04:28:31.810Z,79.69
2019-01-15T04:29:31.814Z,80.07
2019-01-15T04:30:31.815Z,79.88
2019-01-15T04:31:31.817Z,80.45
2019-01-15T04:32:31.818Z,80.45
2019-01-15T04:33:31.822Z,80.26
2019-01-15T04:34:31.823Z,80.36
2019-01-15T04:35:31.824Z,80.83
2019-01-15T04:36:31.826Z,80.92
2019-01-15T04:37:31.827Z,79.41
2019-01-15T04:38:31.828Z,78.19
2019-01-15T04:39:31.833Z,77.72
2019-01-15T04:40:31.834Z,77.62
2019-01-15T04:41:31.842Z,77.44
2019-01-15T04:42:31.837Z,77.53
2019-01-15T04:43:31.836Z,78.00
2019-01-15T04:44:31.839Z,78.09
2019-01-15T04:45:31.842Z,78.75
2019-01-15T04:46:31.842Z,78.56
2019-01-15T04:47:31.841Z,78.38
2019-01-15T04:48:31.843Z,78.56
2019-01-15T04:49:31.847Z,78.47
2019-01-15T04:50:31.851Z,78.38
2019-01-15T04:51:31.851Z,77.91
2019-01-15T04:52:31.860Z,77.62
2019-01-15T04:53:31.874Z,77.44
2019-01-15T04:54:31.865Z,77.72
2019-01-15T04:55:31.859Z,77.53
2019-01-15T04:56:31.861Z,77.44
2019-01-15T04:57:31.857Z,77.25
2019-01-15T04:58:31.865Z,77.15
2019-01-15T04:59:31.861Z,77.25
2019-01-15T05:00:31.861Z,77.15
2019-01-15T05:01:31.868Z,77.53
2019-01-15T05:02:31.869Z,77.06
2019-01-15T05:03:31.870Z,76.58
2019-01-15T05:04:31.873Z,77.25
2019-01-15T05:05:31.892Z,77.34
2019-01-15T05:06:31.871Z,77.44
2019-01-15T05:07:31.875Z,77.34
2019-01-15T05:08:31.875Z,77.44
2019-01-15T05:09:31.881Z,76.40
2019-01-15T05:10:31.884Z,75.92
2019-01-15T05:11:31.881Z,75.54
2019-01-15T05:12:31.883Z,75.73
2019-01-15T05:13:31.886Z,74.88
2019-01-15T05:14:31.887Z,75.07
2019-01-15T05:15:31.887Z,74.51
2019-01-15T05:16:31.893Z,75.45
2019-01-15T05:17:31.890Z,75.17
2019-01-15T05:18:31.892Z,75.36
2019-01-15T05:19:31.892Z,75.83
2019-01-15T05:20:31.898Z,75.45
2019-01-15T05:21:31.901Z,75.45
2019-01-15T05:22:31.905Z,74.98
2019-01-15T05:23:31.904Z,74.69
2019-01-15T05:24:31.907Z,74.22
2019-01-15T05:25:31.907Z,74.04
2019-01-15T05:26:31.908Z,72.91
2019-01-15T05:27:31.908Z,73.10
2019-01-15T05:28:31.910Z,72.91
2019-01-15T05:29:31.912Z,72.44
2019-01-15T05:30:31.914Z,72.44
2019-01-15T05:31:31.922Z,71.87
2019-01-15T05:32:31.924Z,71.40
2019-01-15T05:33:31.920Z,71.68
2019-01-15T05:34:31.918Z,71.68
2019-01-15T05:35:31.922Z,71.58
2019-01-15T05:36:31.931Z,71.58
2019-01-15T05:37:31.925Z,71.96
2019-01-15T05:38:31.926Z,71.96
2019-01-15T05:39:31.927Z,72.06
2019-01-15T05:40:31.929Z,71.87
2019-01-15T05:41:31.935Z,71.68
2019-01-15T05:42:31.934Z,71.58
2019-01-15T05:43:35.850Z,71.40
2019-01-15T05:44:31.937Z,71.21
2019-01-15T05:45:31.942Z,72.06
2019-01-15T05:46:31.940Z,71.68
2019-01-15T05:47:31.942Z,71.40
2019-01-15T05:48:31.945Z,71.40
2019-01-15T05:49:31.947Z,71.30
2019-01-15T05:50:31.951Z,71.68
2019-01-15T05:51:31.952Z,71.58
2019-01-15T05:52:31.954Z,71.58
2019-01-15T05:53:31.958Z,71.30
2019-01-15T05:54:31.959Z,71.11
2019-01-15T05:55:31.965Z,70.83
2019-01-15T05:56:31.969Z,70.07
2019-01-15T05:57:31.964Z,70.17
2019-01-15T05:58:31.966Z,70.64
2019-01-15T05:59:31.967Z,70.92
2019-01-15T06:00:31.973Z,71.11
2019-01-15T06:01:31.974Z,71.11
2019-01-15T06:02:31.974Z,70.92
2019-01-15T06:03:31.978Z,70.83
2019-01-15T06:04:31.984Z,71.02
2019-01-15T06:05:31.981Z,70.45
2019-01-15T06:06:31.984Z,70.54
2019-01-15T06:07:33.806Z,69.98
2019-01-15T06:08:33.382Z,70.26
2019-01-15T06:09:31.993Z,69.79
2019-01-15T06:10:31.995Z,69.13
2019-01-15T06:11:31.992Z,69.23
2019-01-15T06:12:31.999Z,68.57
2019-01-15T06:13:31.999Z,68.29
2019-01-15T06:14:31.999Z,67.62
2019-01-15T06:15:32.002Z,67.43
2019-01-15T06:16:32.004Z,66.58
2019-01-15T06:17:32.006Z,66.49
2019-01-15T06:18:32.006Z,65.64
2019-01-15T06:19:32.012Z,64.61
2019-01-15T06:20:32.015Z,64.23
2019-01-15T06:21:32.018Z,63.85
2019-01-15T06:22:32.022Z,64.04
2019-01-15T06:23:32.021Z,63.47
2019-01-15T06:24:32.023Z,62.43
2019-01-15T06:25:32.026Z,61.30
2019-01-15T06:26:32.025Z,61.30
2019-01-15T06:27:32.030Z,61.49
2019-01-15T06:28:32.031Z,60.55
2019-01-15T06:29:32.034Z,60.55
2019-01-15T06:30:32.038Z,60.83
2019-01-15T06:31:32.039Z,60.83
2019-01-15T06:32:32.039Z,60.74
2019-01-15T06:33:32.046Z,60.55
2019-01-15T06:34:32.043Z,60.08
2019-01-15T06:35:32.047Z,59.99
2019-01-15T06:36:32.049Z,60.46
2019-01-15T06:37:32.049Z,60.64
2019-01-15T06:38:32.062Z,60.64
2019-01-15T06:39:32.053Z,59.42
2019-01-15T06:40:32.057Z,57.62
2019-01-15T06:41:32.059Z,56.12
2019-01-15T06:42:32.063Z,54.80
2019-01-15T06:43:32.065Z,52.72
2019-01-15T06:44:32.068Z,52.25
2019-01-15T06:45:32.066Z,50.74
2019-01-15T06:46:32.067Z,50.65
2019-01-15T06:47:32.069Z,50.55
2019-01-15T06:48:32.116Z,50.55
2019-01-15T06:49:32.074Z,51.03
2019-01-15T06:50:32.073Z,50.93
2019-01-15T06:51:32.076Z,49.80
2019-01-15T06:52:32.080Z,48.00
2019-01-15T06:53:32.082Z,45.74
2019-01-15T06:54:32.084Z,44.99
2019-01-15T06:55:32.085Z,44.26
2019-01-15T06:56:32.091Z,44.35
2019-01-15T06:57:32.098Z,44.61
2019-01-15T06:58:32.090Z,45.10
2019-01-15T06:59:32.097Z,44.92
2019-01-15T07:00:32.100Z,44.82
2019-01-15T07:01:32.098Z,44.26
2019-01-15T07:02:32.149Z,43.59
2019-01-15T07:03:32.104Z,43.50
2019-01-15T07:04:32.104Z,43.03
2019-01-15T07:05:32.110Z,40.67
2019-01-15T07:06:32.111Z,39.63
2019-01-15T07:07:32.111Z,39.06
2019-01-15T07:08:32.119Z,39.35
2019-01-15T07:09:32.123Z,41.05
2019-01-15T07:10:32.127Z,41.89
2019-01-15T07:11:32.123Z,42.46
2019-01-15T07:12:32.125Z,42.18
2019-01-15T07:13:32.133Z,40.48
2019-01-15T07:14:32.129Z,40.01
2019-01-15T07:15:32.132Z,42.18
2019-01-15T07:16:32.138Z,44.07
2019-01-15T07:17:32.138Z,44.54
2019-01-15T07:18:32.141Z,44.35
2019-01-15T07:19:32.146Z,43.69
2019-01-15T07:20:32.153Z,43.22
2019-01-15T07:21:32.149Z,45.86
2019-01-15T07:22:32.151Z,46.80
2019-01-15T07:23:32.155Z,47.56
2019-01-15T07:24:32.159Z,48.03
2019-01-15T07:25:32.159Z,48.50
2019-01-15T07:26:32.161Z,47.75
2019-01-15T07:27:32.165Z,47.56
2019-01-15T07:28:32.171Z,47.27
2019-01-15T07:29:32.171Z,46.71
2019-01-15T07:30:32.173Z,46.23
2019-01-15T07:31:32.175Z,45.01
2019-01-15T07:32:32.177Z,45.10
2019-01-15T07:33:32.182Z,44.26
2019-01-15T07:34:32.183Z,43.69
2019-01-15T07:35:32.236Z,42.55
2019-01-15T07:36:32.188Z,43.03
2019-01-15T07:37:32.197Z,42.74
2019-01-15T07:38:32.194Z,42.93
2019-01-15T07:39:32.197Z,43.78
2019-01-15T07:40:32.201Z,45.39
2019-01-15T07:41:32.203Z,46.90
2019-01-15T07:42:32.208Z,48.79
2019-01-15T07:43:32.208Z,50.01
2019-01-15T07:44:32.213Z,51.05
2019-01-15T07:45:32.215Z,51.99
2019-01-15T07:46:32.215Z,52.56
2019-01-15T07:47:32.219Z,52.94
2019-01-15T07:48:32.225Z,53.97
2019-01-15T07:49:32.228Z,54.35
2019-01-15T07:50:32.230Z,53.69
2019-01-15T07:51:32.236Z,53.59
2019-01-15T07:52:32.236Z,51.71
2019-01-15T07:53:32.236Z,50.20
2019-01-15T07:54:32.241Z,49.63
2019-01-15T07:55:32.245Z,49.16
2019-01-15T07:56:32.246Z,49.26
2019-01-15T07:57:32.249Z,49.54
2019-01-15T07:58:32.251Z,50.67
2019-01-15T07:59:32.254Z,51.62
2019-01-15T08:00:32.257Z,52.56
2019-01-15T08:01:32.261Z,53.22
2019-01-15T08:02:32.275Z,53.22
2019-01-15T08:03:32.269Z,52.75
2019-01-15T08:04:32.268Z,51.24
2019-01-15T08:05:32.274Z,50.20
2019-01-15T08:06:32.275Z,48.22
2019-01-15T08:07:32.278Z,46.71
2019-01-15T08:08:32.280Z,45.48
2019-01-15T08:09:32.283Z,45.20
2019-01-15T08:10:32.284Z,45.39
2019-01-15T08:11:32.294Z,46.33
2019-01-15T08:12:32.295Z,46.14
2019-01-15T08:13:32.293Z,46.14
2019-01-15T08:14:32.295Z,46.42
2019-01-15T08:15:32.299Z,46.42
2019-01-15T08:16:32.304Z,46.80
2019-01-15T08:17:32.310Z,46.90
2019-01-15T08:18:32.308Z,47.18
2019-01-15T08:19:32.313Z,46.80
2019-01-15T08:20:32.317Z,46.90
2019-01-15T08:21:32.318Z,46.14
2019-01-15T08:22:32.325Z,46.23
2019-01-15T08:23:32.323Z,46.04
2019-01-15T08:24:32.327Z,47.09
2019-01-15T08:25:32.331Z,47.46
2019-01-15T08:26:32.334Z,46.42
2019-01-15T08:27:32.340Z,45.67
2019-01-15T08:28:32.342Z,45.48
2019-01-15T08:29:32.344Z,45.39
2019-01-15T08:30:32.390Z,44.73
2019-01-15T08:31:32.348Z,45.48
2019-01-15T08:32:32.352Z,46.23
2019-01-15T08:33:32.353Z,47.27
2019-01-15T08:34:32.357Z,47.27
2019-01-15T08:35:32.361Z,47.94
2019-01-15T08:36:32.364Z,47.27
2019-01-15T08:37:32.367Z,46.23
2019-01-15T08:38:32.376Z,45.39
2019-01-15T08:39:32.376Z,44.37
2019-01-15T08:40:32.376Z,42.39
2019-01-15T08:41:32.381Z,42.48
2019-01-15T08:42:32.382Z,43.80
2019-01-15T08:43:32.386Z,44.84
2019-01-15T08:44:32.392Z,45.13
2019-01-15T08:45:32.393Z,45.79
2019-01-15T08:46:32.397Z,46.73
2019-01-15T08:47:32.398Z,47.96
2019-01-15T08:48:32.402Z,49.76
2019-01-15T08:49:32.408Z,51.07
2019-01-15T08:50:32.412Z,50.98
2019-01-15T08:51:32.416Z,51.36
2019-01-15T08:52:32.417Z,51.17
2019-01-15T08:53:32.420Z,50.63
2019-01-15T08:54:32.423Z,49.40
2019-01-15T08:55:32.432Z,47.80
2019-01-15T08:56:32.430Z,47.13
2019-01-15T08:57:32.435Z,46.75
2019-01-15T08:58:32.438Z,46.94
2019-01-15T08:59:32.445Z,46.37
2019-01-15T09:00:32.448Z,46.28
2019-01-15T09:01:32.450Z,45.43
2019-01-15T09:02:32.461Z,46.12
2019-01-15T09:03:32.460Z,48.57
2019-01-15T09:04:32.465Z,51.32
2019-01-15T09:05:32.469Z,51.41
2019-01-15T09:06:32.472Z,51.50
2019-01-15T09:07:32.478Z,50.65
2019-01-15T09:08:32.481Z,51.79
2019-01-15T09:09:32.488Z,53.11
2019-01-15T09:10:32.490Z,54.15
2019-01-15T09:11:32.497Z,54.72
2019-01-15T09:12:32.503Z,54.53
2019-01-15T09:13:32.519Z,54.62
2019-01-15T09:14:32.508Z,55.10
2019-01-15T09:15:32.515Z,54.81
2019-01-15T09:16:32.518Z,54.81
2019-01-15T09:17:32.524Z,54.15
2019-01-15T09:18:32.528Z,53.02
2019-01-15T09:19:32.533Z,53.20
2019-01-15T09:20:32.539Z,54.84
2019-01-15T09:21:32.548Z,54.25
2019-01-15T09:22:32.550Z,54.74
2019-01-15T09:23:32.559Z,55.12
2019-01-15T09:24:32.561Z,55.69
2019-01-15T09:25:32.568Z,56.26
2019-01-15T09:26:32.571Z,56.01
2019-01-15T09:27:32.577Z,55.06
2019-01-15T09:28:32.595Z,52.31
2019-01-15T09:29:32.589Z,52.12
2019-01-15T09:30:32.596Z,50.90
2019-01-15T09:31:32.602Z,49.76
2019-01-15T09:32:32.608Z,50.33
2019-01-15T09:33:32.613Z,51.09
2019-01-15T09:34:32.621Z,52.53
2019-01-15T09:35:32.627Z,53.66
2019-01-15T09:36:32.632Z,53.95
2019-01-15T09:37:32.639Z,53.47
2019-01-15T09:38:32.645Z,50.92
2019-01-15T09:39:32.652Z,46.59
2019-01-15T09:40:32.660Z,41.93
2019-01-15T09:41:32.669Z,46.17
2019-01-15T09:42:32.679Z,48.25
2019-01-15T09:43:32.681Z,50.90
2019-01-15T09:44:34.288Z,51.09
2019-01-15T09:45:32.693Z,51.77
2019-01-15T09:46:32.700Z,52.34
2019-01-15T09:47:32.708Z,52.53
2019-01-15T09:48:32.715Z,52.65
2019-01-15T09:49:32.724Z,52.27
2019-01-15T09:50:32.727Z,50.95
2019-01-15T09:51:32.738Z,48.39
2019-01-15T09:52:32.744Z,47.34
2019-01-15T09:53:32.750Z,47.91
2019-01-15T09:54:32.758Z,49.71
2019-01-15T09:55:32.767Z,50.00
2019-01-15T09:56:32.772Z,49.31
2019-01-15T09:57:32.785Z,49.69
2019-01-15T09:58:32.789Z,48.08
2019-01-15T09:59:32.796Z,49.22
2019-01-15T10:00:32.807Z,50.54
2019-01-15T10:01:32.812Z,50.92
2019-01-15T10:02:32.822Z,50.76
2019-01-15T10:03:32.829Z,49.71
2019-01-15T10:04:32.836Z,48.01
2019-01-15T10:05:32.843Z,48.49
2019-01-15T10:06:32.859Z,48.58
2019-01-15T10:07:32.860Z,49.52
2019-01-15T10:08:32.871Z,49.55
2019-01-15T10:09:32.877Z,50.97
2019-01-15T10:10:32.884Z,51.26
2019-01-15T10:11:32.892Z,50.05
2019-01-15T10:12:32.901Z,48.70
2019-01-15T10:13:32.915Z,48.98
2019-01-15T10:14:32.921Z,49.36
2019-01-15T10:15:32.930Z,49.52
2019-01-15T10:16:32.939Z,51.70
2019-01-15T10:17:32.952Z,52.56
2019-01-15T10:18:32.956Z,54.38
2019-01-15T10:19:32.964Z,52.70
2019-01-15T10:20:32.976Z,49.57
2019-01-15T10:21:32.985Z,46.54
2019-01-15T10:22:32.993Z,46.92
2019-01-15T10:23:33.001Z,45.21
2019-01-15T10:24:33.011Z,47.39
2019-01-15T10:25:33.023Z,48.54
2019-01-15T10:26:33.031Z,44.27
2019-01-15T10:27:33.041Z,43.32
2019-01-15T10:28:33.051Z,45.97
2019-01-15T10:29:33.123Z,45.52
2019-01-15T10:30:33.063Z,45.73
2019-01-15T10:31:33.079Z,45.54
2019-01-15T10:32:33.086Z,44.81
2019-01-15T10:33:33.098Z,42.98
2019-01-15T10:34:33.109Z,45.07
2019-01-15T10:35:33.116Z,45.38
2019-01-15T10:36:33.129Z,45.76
2019-01-15T10:37:33.137Z,45.78
2019-01-15T10:38:33.145Z,44.64
2019-01-15T10:39:33.157Z,44.28
2019-01-15T10:40:33.166Z,42.91
2019-01-15T10:41:33.179Z,43.65
2019-01-15T10:42:33.194Z,42.51
2019-01-15T10:43:33.199Z,43.91
2019-01-15T10:44:33.211Z,43.15
2019-01-15T10:45:33.222Z,44.79
2019-01-15T10:46:33.236Z,42.15
2019-01-15T10:47:33.244Z,40.92
2019-01-15T10:48:33.254Z,37.80
2019-01-15T10:49:33.271Z,33.54
2019-01-15T10:50:33.278Z,30.88
2019-01-15T10:51:33.290Z,29.64
2019-01-15T10:52:33.300Z,29.19
2019-01-15T10:53:33.313Z,28.14
2019-01-15T10:54:33.326Z,26.62
2019-01-15T10:55:33.337Z,26.16
2019-01-15T10:56:33.346Z,25.02
2019-01-15T10:57:33.358Z,25.11
2019-01-15T10:58:33.372Z,25.22
2019-01-15T10:59:33.387Z,24.93
2019-01-15T11:00:33.397Z,24.65
2019-01-15T11:01:33.409Z,24.84
2019-01-15T11:02:33.420Z,25.03
2019-01-15T11:03:33.435Z,23.60
2019-01-15T11:04:33.447Z,23.79
2019-01-15T11:05:33.460Z,22.26
2019-01-15T11:06:33.472Z,20.73
2019-01-15T11:07:33.482Z,21.88
2019-01-15T11:08:33.495Z,23.78
2019-01-15T11:09:33.510Z,23.40
2019-01-15T11:10:33.524Z,24.54
2019-01-15T11:11:33.533Z,25.02
2019-01-15T11:12:33.550Z,24.16
2019-01-15T11:13:33.563Z,22.74
2019-01-15T11:14:33.578Z,22.84
2019-01-15T11:15:33.585Z,23.32
2019-01-15T11:16:33.600Z,21.70
2019-01-15T11:17:33.611Z,21.79
2019-01-15T11:18:33.625Z,21.79
2019-01-15T11:19:33.637Z,23.23
2019-01-15T11:20:33.653Z,23.89
2019-01-15T11:21:33.668Z,21.51
2019-01-15T11:22:33.679Z,21.90
2019-01-15T11:23:33.693Z,21.23
2019-01-15T11:24:33.704Z,21.80
2019-01-15T11:25:33.720Z,23.61
2019-01-15T11:26:33.732Z,20.28
2019-01-15T11:27:33.747Z,20.00
2019-01-15T11:28:33.759Z,20.85
2019-01-15T11:29:33.775Z,20.37
2019-01-15T11:30:33.794Z,18.86
2019-01-15T11:31:33.803Z,18.19
2019-01-15T11:32:33.817Z,17.81
2019-01-15T11:33:33.831Z,20.57
2019-01-15T11:34:33.846Z,27.99
2019-01-15T11:35:33.857Z,32.28
2019-01-15T11:36:33.876Z,27.69
2019-01-15T11:37:33.888Z,23.71
2019-01-15T11:38:33.903Z,21.51
2019-01-15T11:39:33.919Z,27.42
2019-01-15T11:40:33.931Z,25.04
2019-01-15T11:41:33.945Z,25.04
2019-01-15T11:42:33.961Z,31.80
2019-01-15T11:43:33.974Z,36.76
2019-01-15T11:44:33.988Z,39.04
2019-01-15T11:45:34.003Z,38.37
2019-01-15T11:46:34.024Z,32.28
2019-01-15T11:47:34.037Z,33.15
2019-01-15T11:48:34.047Z,30.77
2019-01-15T11:49:34.063Z,28.67
2019-01-15T11:50:34.075Z,23.63
2019-01-15T11:51:34.098Z,22.00
2019-01-15T11:52:34.105Z,30.77
2019-01-15T11:53:34.124Z,35.15
2019-01-15T11:54:34.139Z,32.96
2019-01-15T11:55:34.152Z,33.15
2019-01-15T11:56:34.170Z,34.60
2019-01-15T11:57:34.185Z,35.36
2019-01-15T11:58:34.197Z,36.12
2019-01-15T11:59:34.218Z,35.93
2019-01-15T12:00:34.227Z,37.80
2019-01-15T12:01:34.245Z,39.51
2019-01-15T12:02:34.260Z,39.90
2019-01-15T12:03:34.275Z,39.53
2019-01-15T12:04:34.292Z,36.68
2019-01-15T12:05:34.306Z,32.48
2019-01-15T12:06:34.326Z,35.06
2019-01-15T12:07:34.338Z,34.11
2019-01-15T12:08:34.356Z,35.63
2019-01-15T12:09:34.390Z,30.29
2019-01-15T12:10:34.384Z,26.29
2019-01-15T12:11:34.400Z,28.97
2019-01-15T12:12:34.417Z,26.68
2019-01-15T12:13:34.436Z,27.55
2019-01-15T12:14:34.452Z,30.31
2019-01-15T12:15:34.469Z,27.55
2019-01-15T12:16:34.482Z,27.81
2019-01-15T12:17:34.502Z,36.13
2019-01-15T12:18:34.522Z,43.01
2019-01-15T12:19:34.531Z,47.77
2019-01-15T12:20:34.547Z,48.72
2019-01-15T12:21:34.575Z,48.06
2019-01-15T12:22:34.578Z,49.04
2019-01-15T12:23:34.596Z,48.30
2019-01-15T12:24:34.615Z,46.88
2019-01-15T12:25:34.627Z,45.42
2019-01-15T12:26:34.648Z,46.75
2019-01-15T12:27:34.662Z,47.77
2019-01-15T12:28:34.677Z,49.79
2019-01-15T12:29:34.692Z,52.35
2019-01-15T12:30:34.713Z,52.66
2019-01-15T12:31:34.726Z,53.23
2019-01-15T12:32:34.738Z,53.52
2019-01-15T12:33:34.756Z,53.84
2019-01-15T12:34:34.769Z,55.93
2019-01-15T12:35:34.786Z,56.62
2019-01-15T12:36:34.802Z,57.47
2019-01-15T12:37:34.819Z,56.49
2019-01-15T12:38:34.832Z,56.56
2019-01-15T12:39:34.850Z,58.67
2019-01-15T12:40:34.864Z,58.11
2019-01-15T12:41:34.877Z,58.93
2019-01-15T12:42:34.892Z,60.10
2019-01-15T12:43:34.909Z,59.08
2019-01-15T12:44:34.924Z,58.23
2019-01-15T12:45:34.941Z,58.77
2019-01-15T12:46:34.951Z,59.31
2019-01-15T12:47:34.974Z,60.35
2019-01-15T12:48:34.984Z,59.03
2019-01-15T12:49:34.995Z,56.85
2019-01-15T12:50:35.012Z,59.25
2019-01-15T12:51:35.031Z,57.70
2019-01-15T12:52:35.042Z,51.16